Abo_alyssa — ER2655 — position and weather

sailwx.info

Track history (hours):
 
Tides and Currents Weather Stations Pressure Air Temp Water Temp Dewpoint Dewpoint Depression Visibility Wind Speed Wind Dir Waves Ship Positions

Abo_alyssa

Last reported at 2017-Dec-17 16:35 UTC. Time now 2017-Dec-18 08:55 UTC.
Position N 40°58' E 028°56'.

Length 95 m; draft 6 m.

Type: Cargo ship. MMSI: 214182655.

Date/timePositionNaut miles runAvg speedWind from/ knotsBaromVisibWave heightAir tempDewpointWater temp
2017-Dec-17 16:35N 40°58' E 028°56'1 5.4
2017-Dec-17 16:21N 40°57' E 028°57'3 7.0
2017-Dec-17 15:55N 40°54' E 028°57'4 8.3
2017-Dec-17 15:28N 40°51' E 028°54'26 5.8
2017-Dec-17 11:04N 40°26' E 028°59'1 7.8
2017-Dec-17 10:59N 40°26' E 028°60'4 7.4
2017-Dec-17 10:30N 40°25' E 029°04'0 0.5
2017-Dec-17 09:44N 40°25' E 029°05'0 0.0
2017-Dec-17 09:20N 40°25' E 029°05'0 0.0
2017-Dec-17 08:56N 40°25' E 029°05'0 0.0
2017-Dec-17 08:26N 40°25' E 029°05'0 0.0
2017-Dec-17 07:56N 40°25' E 029°05'0 0.0
2017-Dec-17 07:26N 40°25' E 029°05'0 0.0
2017-Dec-17 06:44N 40°25' E 029°05'0 0.0
2017-Dec-17 06:26N 40°25' E 029°05'0 0.0
2017-Dec-17 05:56N 40°25' E 029°05'0 0.0
2017-Dec-17 05:26N 40°25' E 029°05'0 0.0
2017-Dec-17 04:56N 40°25' E 029°05'0 0.0
2017-Dec-17 04:26N 40°25' E 029°05'0 0.0
2017-Dec-17 03:56N 40°25' E 029°05'0 0.0
2017-Dec-17 03:26N 40°25' E 029°05'0 0.0
2017-Dec-17 02:56N 40°25' E 029°05'0 0.0
2017-Dec-17 02:26N 40°25' E 029°05'0 0.0
2017-Dec-17 01:56N 40°25' E 029°05'0 0.0
2017-Dec-17 01:26N 40°25' E 029°05'0 0.0
2017-Dec-17 00:56N 40°25' E 029°05'0 0.0
2017-Dec-17 00:26N 40°25' E 029°05'0 0.0
2017-Dec-16 23:56N 40°25' E 029°05'0 0.0
2017-Dec-16 23:26N 40°25' E 029°05'0 0.0
2017-Dec-16 22:56N 40°25' E 029°05'0 0.0
2017-Dec-16 22:26N 40°25' E 029°05'0 0.0
2017-Dec-16 21:56N 40°25' E 029°05'0 0.0
2017-Dec-16 21:26N 40°25' E 029°05'0 0.0
2017-Dec-16 20:56N 40°25' E 029°05'0 0.0
2017-Dec-16 20:26N 40°25' E 029°05'0 0.0
2017-Dec-16 19:50N 40°25' E 029°05'0 0.0
2017-Dec-16 19:26N 40°25' E 029°05'0 0.0
2017-Dec-16 18:56N 40°25' E 029°05'0 0.0
2017-Dec-16 18:20N 40°25' E 029°05'0 0.0
2017-Dec-16 17:50N 40°25' E 029°05'0 0.0
2017-Dec-16 16:26N 40°25' E 029°05'0 0.0
2017-Dec-16 15:50N 40°25' E 029°05'0 0.0
2017-Dec-16 15:29N 40°25' E 029°05'0 0.0
2017-Dec-16 14:59N 40°25' E 029°05'0 0.0
2017-Dec-16 14:29N 40°25' E 029°05'0 0.0
2017-Dec-16 13:53N 40°25' E 029°05'0 0.0
2017-Dec-16 13:23N 40°25' E 029°05'0 0.0
2017-Dec-16 12:59N 40°25' E 029°05'0 0.0
2017-Dec-16 12:29N 40°25' E 029°05'0 0.0
2017-Dec-16 11:59N 40°25' E 029°05'0 0.0
2017-Dec-16 11:29N 40°25' E 029°05'0 0.0
2017-Dec-16 10:59N 40°25' E 029°05'0 0.0
2017-Dec-16 10:23N 40°25' E 029°05'0 0.0
2017-Dec-16 09:53N 40°25' E 029°05'0 0.0
2017-Dec-16 09:29N 40°25' E 029°05'0 0.0
2017-Dec-16 08:59N 40°25' E 029°05'0 0.0
2017-Dec-16 08:23N 40°25' E 029°05'0 0.0
2017-Dec-16 07:53N 40°25' E 029°05'0 0.0
2017-Dec-16 07:29N 40°25' E 029°05'0 0.0
2017-Dec-16 06:41N 40°25' E 029°05'0 0.0
2017-Dec-16 06:23N 40°25' E 029°05'0 0.0
2017-Dec-16 05:59N 40°25' E 029°05'0 0.0
2017-Dec-16 05:29N 40°25' E 029°05'0 0.0
2017-Dec-16 04:47N 40°25' E 029°05'0 0.0
2017-Dec-16 04:11N 40°25' E 029°05'0 0.0
2017-Dec-16 03:59N 40°25' E 029°05'0 0.0
2017-Dec-16 03:29N 40°25' E 029°05'0 0.0
2017-Dec-16 02:53N 40°25' E 029°05'0 0.0
2017-Dec-16 02:29N 40°25' E 029°05'0 0.0
2017-Dec-16 01:59N 40°25' E 029°05'0 0.0
2017-Dec-16 01:23N 40°25' E 029°05'0 0.0
2017-Dec-16 00:53N 40°25' E 029°05'0 0.0
2017-Dec-16 00:23N 40°25' E 029°05'0 0.0
2017-Dec-15 23:47N 40°25' E 029°05'0 0.0
2017-Dec-15 23:29N 40°25' E 029°05'0 0.0
2017-Dec-15 22:29N 40°25' E 029°05'0 0.0
2017-Dec-15 21:53N 40°25' E 029°05'0 0.0
2017-Dec-15 21:29N 40°25' E 029°05'0 0.0
2017-Dec-15 20:59N 40°25' E 029°05'0 0.0
2017-Dec-15 18:55N 40°25' E 029°05'2 1.4
2017-Dec-15 17:46N 40°26' E 029°04'1 1.6
2017-Dec-15 17:23N 40°26' E 029°03'215 6.5
2017-Dec-14 08:29N 37°53' E 025°48'4 9.0
2017-Dec-14 08:00N 37°49' E 025°48'20 9.2
2017-Dec-14 05:52N 37°29' E 025°49'3 8.7
2017-Dec-14 05:30N 37°26' E 025°49'4 8.1
2017-Dec-14 05:00N 37°22' E 025°48'4 8.0
2017-Dec-14 04:30N 37°18' E 025°47'4 8.2
2017-Dec-14 04:00N 37°14' E 025°46'4 8.0
2017-Dec-14 03:30N 37°10' E 025°45'4 7.7
2017-Dec-14 03:00N 37°06' E 025°45'4 7.7
2017-Dec-14 02:30N 37°03' E 025°46'4 8.4
2017-Dec-14 02:00N 36°58' E 025°45'4 8.4
2017-Dec-14 01:30N 36°54' E 025°45'4 8.1
2017-Dec-14 01:00N 36°50' E 025°43'4 8.1
2017-Dec-14 00:30N 36°47' E 025°41'4 8.0
2017-Dec-14 00:00N 36°43' E 025°38'4 8.1
2017-Dec-13 23:29N 36°40' E 025°36'4 7.9
2017-Dec-13 23:00N 36°36' E 025°36'15 8.0
2017-Dec-13 21:07N 36°21' E 025°35'1 7.9
2017-Dec-13 21:00N 36°20' E 025°35'4 7.8
2017-Dec-13 20:30N 36°16' E 025°33'4 7.8
2017-Dec-13 20:00N 36°13' E 025°31'4 7.7
2017-Dec-13 19:30N 36°09' E 025°29'4 7.6
2017-Dec-13 18:57N 36°05' E 025°27'3 7.4
2017-Dec-13 18:30N 36°02' E 025°26'3 6.9
2017-Dec-13 18:00N 35°59' E 025°26'4 6.9
2017-Dec-13 17:30N 35°55' E 025°25'3 6.8
2017-Dec-13 17:01N 35°52' E 025°24'3 6.7
2017-Dec-13 16:30N 35°49' E 025°24'3 6.5
2017-Dec-13 16:00N 35°45' E 025°24'3 6.7
2017-Dec-13 15:31N 35°42' E 025°25'3 6.4
2017-Dec-13 15:00N 35°39' E 025°24'6 6.6
2017-Dec-13 14:09N 35°33' E 025°23'1 6.4
2017-Dec-13 13:59N 35°32' E 025°23'4 6.5
2017-Dec-13 13:19N 35°28' E 025°21'3 7.6
2017-Dec-13 12:58N 35°26' E 025°20'5 8.1
2017-Dec-13 12:23N 35°23' E 025°15'4 8.6
2017-Dec-13 11:56N 35°21' E 025°11'2 0.3
2017-Dec-13 05:59N 35°21' E 025°09'0 0.0
2017-Dec-13 05:29N 35°21' E 025°09'0 0.0
2017-Dec-13 04:26N 35°21' E 025°09'0 0.0
2017-Dec-13 03:44N 35°21' E 025°09'0 0.0
2017-Dec-13 03:26N 35°21' E 025°09'0 0.0
2017-Dec-13 02:56N 35°21' E 025°09'0 0.0
2017-Dec-13 02:29N 35°21' E 025°09'0 0.0
2017-Dec-13 01:59N 35°21' E 025°09'0 0.0
2017-Dec-13 01:29N 35°21' E 025°09'0 0.0
2017-Dec-13 00:59N 35°21' E 025°09'0 0.0
2017-Dec-13 00:26N 35°21' E 025°09'0 0.0
2017-Dec-12 23:59N 35°21' E 025°09'0 0.0
2017-Dec-12 23:26N 35°21' E 025°09'0 0.0
2017-Dec-12 22:47N 35°21' E 025°09'0 0.0
2017-Dec-12 22:26N 35°21' E 025°09'0 0.0
2017-Dec-12 21:59N 35°21' E 025°09'0 0.0
2017-Dec-12 21:23N 35°21' E 025°09'0 0.0
2017-Dec-12 20:59N 35°21' E 025°09'0 0.0
2017-Dec-12 20:29N 35°21' E 025°09'0 0.0
2017-Dec-12 19:56N 35°21' E 025°09'0 0.0
2017-Dec-12 19:29N 35°21' E 025°09'0 0.0
2017-Dec-12 18:56N 35°21' E 025°09'0 0.0
2017-Dec-12 18:29N 35°21' E 025°09'0 0.0
2017-Dec-12 17:56N 35°21' E 025°09'0 0.0
2017-Dec-12 15:53N 35°21' E 025°09'0 0.0
2017-Dec-12 15:17N 35°21' E 025°09'0 0.0
2017-Dec-12 14:17N 35°21' E 025°09'0 0.0
2017-Dec-12 10:41N 35°21' E 025°09'0 0.0
2017-Dec-12 10:11N 35°21' E 025°09'0 0.0
2017-Dec-12 09:59N 35°21' E 025°09'0 0.0
2017-Dec-12 06:38N 35°21' E 025°09'0 0.0
2017-Dec-12 06:17N 35°21' E 025°09'0 0.0
2017-Dec-12 05:56N 35°21' E 025°09'0 0.0
2017-Dec-12 05:26N 35°21' E 025°09'0 0.0
2017-Dec-12 04:38N 35°21' E 025°09'0 0.0
2017-Dec-12 04:29N 35°21' E 025°09'0 0.0
2017-Dec-12 03:56N 35°21' E 025°09'0 0.0
2017-Dec-12 03:23N 35°21' E 025°09'0 0.0
2017-Dec-12 02:59N 35°21' E 025°09'0 0.0
2017-Dec-12 02:29N 35°21' E 025°09'0 0.0
2017-Dec-12 01:56N 35°21' E 025°09'0 0.0
2017-Dec-12 01:26N 35°21' E 025°09'0 0.0
2017-Dec-12 00:53N 35°21' E 025°09'0 0.0
2017-Dec-11 23:47N 35°21' E 025°09'0 0.0
2017-Dec-11 23:29N 35°21' E 025°09'0 0.0
2017-Dec-11 20:48N 35°21' E 025°09'1 0.0
2017-Dec-10 09:20N 35°21' E 025°08'0 0.6
2017-Dec-10 08:56N 35°22' E 025°08'1 3.0
2017-Dec-10 08:29N 35°22' E 025°10'2 4.0
2017-Dec-10 08:00N 35°22' E 025°12'3 6.4
2017-Dec-10 07:30N 35°22' E 025°16'4 6.4
2017-Dec-10 06:53N 35°23' E 025°21'3 6.3
2017-Dec-10 06:28N 35°24' E 025°24'3 6.4
2017-Dec-10 05:56N 35°25' E 025°28'3 6.5
2017-Dec-10 05:29N 35°25' E 025°31'6 6.6
2017-Dec-10 04:33N 35°26' E 025°39'1 6.6
2017-Dec-10 04:24N 35°26' E 025°40'  
Track history (hours):
 
Tides and Currents Weather Stations Pressure Air Temp Water Temp Dewpoint Dewpoint Depression Visibility Wind Speed Wind Dir Waves Ship Positions

Abo_alyssa

Last reported at 2017-Dec-17 16:35 UTC. Time now 2017-Dec-18 08:55 UTC.
Position N 40°58' E 028°56'.

Length 95 m; draft 6 m.

Type: Cargo ship. MMSI: 214182655.

Date/timePositionNaut miles runAvg speedWind from/ knotsBaromVisibWave heightAir tempDewpointWater temp
2017-Dec-17 16:35N 40°58' E 028°56'1 5.4
2017-Dec-17 16:21N 40°57' E 028°57'3 7.0
2017-Dec-17 15:55N 40°54' E 028°57'4 8.3
2017-Dec-17 15:28N 40°51' E 028°54'26 5.8
2017-Dec-17 11:04N 40°26' E 028°59'1 7.8
2017-Dec-17 10:59N 40°26' E 028°60'4 7.4
2017-Dec-17 10:30N 40°25' E 029°04'0 0.5
2017-Dec-17 09:44N 40°25' E 029°05'0 0.0
2017-Dec-17 09:20N 40°25' E 029°05'0 0.0
2017-Dec-17 08:56N 40°25' E 029°05'0 0.0
2017-Dec-17 08:26N 40°25' E 029°05'0 0.0
2017-Dec-17 07:56N 40°25' E 029°05'0 0.0
2017-Dec-17 07:26N 40°25' E 029°05'0 0.0
2017-Dec-17 06:44N 40°25' E 029°05'0 0.0
2017-Dec-17 06:26N 40°25' E 029°05'0 0.0
2017-Dec-17 05:56N 40°25' E 029°05'0 0.0
2017-Dec-17 05:26N 40°25' E 029°05'0 0.0
2017-Dec-17 04:56N 40°25' E 029°05'0 0.0
2017-Dec-17 04:26N 40°25' E 029°05'0 0.0
2017-Dec-17 03:56N 40°25' E 029°05'0 0.0
2017-Dec-17 03:26N 40°25' E 029°05'0 0.0
2017-Dec-17 02:56N 40°25' E 029°05'0 0.0
2017-Dec-17 02:26N 40°25' E 029°05'0 0.0
2017-Dec-17 01:56N 40°25' E 029°05'0 0.0
2017-Dec-17 01:26N 40°25' E 029°05'0 0.0
2017-Dec-17 00:56N 40°25' E 029°05'0 0.0
2017-Dec-17 00:26N 40°25' E 029°05'0 0.0
2017-Dec-16 23:56N 40°25' E 029°05'0 0.0
2017-Dec-16 23:26N 40°25' E 029°05'0 0.0
2017-Dec-16 22:56N 40°25' E 029°05'0 0.0
2017-Dec-16 22:26N 40°25' E 029°05'0 0.0
2017-Dec-16 21:56N 40°25' E 029°05'0 0.0
2017-Dec-16 21:26N 40°25' E 029°05'0 0.0
2017-Dec-16 20:56N 40°25' E 029°05'0 0.0
2017-Dec-16 20:26N 40°25' E 029°05'0 0.0
2017-Dec-16 19:50N 40°25' E 029°05'0 0.0
2017-Dec-16 19:26N 40°25' E 029°05'0 0.0
2017-Dec-16 18:56N 40°25' E 029°05'0 0.0
2017-Dec-16 18:20N 40°25' E 029°05'0 0.0
2017-Dec-16 17:50N 40°25' E 029°05'0 0.0
2017-Dec-16 16:26N 40°25' E 029°05'0 0.0
2017-Dec-16 15:50N 40°25' E 029°05'0 0.0
2017-Dec-16 15:29N 40°25' E 029°05'0 0.0
2017-Dec-16 14:59N 40°25' E 029°05'0 0.0
2017-Dec-16 14:29N 40°25' E 029°05'0 0.0
2017-Dec-16 13:53N 40°25' E 029°05'0 0.0
2017-Dec-16 13:23N 40°25' E 029°05'0 0.0
2017-Dec-16 12:59N 40°25' E 029°05'0 0.0
2017-Dec-16 12:29N 40°25' E 029°05'0 0.0
2017-Dec-16 11:59N 40°25' E 029°05'0 0.0
2017-Dec-16 11:29N 40°25' E 029°05'0 0.0
2017-Dec-16 10:59N 40°25' E 029°05'0 0.0
2017-Dec-16 10:23N 40°25' E 029°05'0 0.0
2017-Dec-16 09:53N 40°25' E 029°05'0 0.0
2017-Dec-16 09:29N 40°25' E 029°05'0 0.0
2017-Dec-16 08:59N 40°25' E 029°05'0 0.0
2017-Dec-16 08:23N 40°25' E 029°05'0 0.0
2017-Dec-16 07:53N 40°25' E 029°05'0 0.0
2017-Dec-16 07:29N 40°25' E 029°05'0 0.0
2017-Dec-16 06:41N 40°25' E 029°05'0 0.0
2017-Dec-16 06:23N 40°25' E 029°05'0 0.0
2017-Dec-16 05:59N 40°25' E 029°05'0 0.0
2017-Dec-16 05:29N 40°25' E 029°05'0 0.0
2017-Dec-16 04:47N 40°25' E 029°05'0 0.0
2017-Dec-16 04:11N 40°25' E 029°05'0 0.0
2017-Dec-16 03:59N 40°25' E 029°05'0 0.0
2017-Dec-16 03:29N 40°25' E 029°05'0 0.0
2017-Dec-16 02:53N 40°25' E 029°05'0 0.0
2017-Dec-16 02:29N 40°25' E 029°05'0 0.0
2017-Dec-16 01:59N 40°25' E 029°05'0 0.0
2017-Dec-16 01:23N 40°25' E 029°05'0 0.0
2017-Dec-16 00:53N 40°25' E 029°05'0 0.0
2017-Dec-16 00:23N 40°25' E 029°05'0 0.0
2017-Dec-15 23:47N 40°25' E 029°05'0 0.0
2017-Dec-15 23:29N 40°25' E 029°05'0 0.0
2017-Dec-15 22:29N 40°25' E 029°05'0 0.0
2017-Dec-15 21:53N 40°25' E 029°05'0 0.0
2017-Dec-15 21:29N 40°25' E 029°05'0 0.0
2017-Dec-15 20:59N 40°25' E 029°05'0 0.0
2017-Dec-15 18:55N 40°25' E 029°05'2 1.4
2017-Dec-15 17:46N 40°26' E 029°04'1 1.6
2017-Dec-15 17:23N 40°26' E 029°03'215 6.5
2017-Dec-14 08:29N 37°53' E 025°48'4 9.0
2017-Dec-14 08:00N 37°49' E 025°48'20 9.2
2017-Dec-14 05:52N 37°29' E 025°49'3 8.7
2017-Dec-14 05:30N 37°26' E 025°49'4 8.1
2017-Dec-14 05:00N 37°22' E 025°48'4 8.0
2017-Dec-14 04:30N 37°18' E 025°47'4 8.2
2017-Dec-14 04:00N 37°14' E 025°46'4 8.0
2017-Dec-14 03:30N 37°10' E 025°45'4 7.7
2017-Dec-14 03:00N 37°06' E 025°45'4 7.7
2017-Dec-14 02:30N 37°03' E 025°46'4 8.4
2017-Dec-14 02:00N 36°58' E 025°45'4 8.4
2017-Dec-14 01:30N 36°54' E 025°45'4 8.1
2017-Dec-14 01:00N 36°50' E 025°43'4 8.1
2017-Dec-14 00:30N 36°47' E 025°41'4 8.0
2017-Dec-14 00:00N 36°43' E 025°38'4 8.1
2017-Dec-13 23:29N 36°40' E 025°36'4 7.9
2017-Dec-13 23:00N 36°36' E 025°36'15 8.0
2017-Dec-13 21:07N 36°21' E 025°35'1 7.9
2017-Dec-13 21:00N 36°20' E 025°35'4 7.8
2017-Dec-13 20:30N 36°16' E 025°33'4 7.8
2017-Dec-13 20:00N 36°13' E 025°31'4 7.7
2017-Dec-13 19:30N 36°09' E 025°29'4 7.6
2017-Dec-13 18:57N 36°05' E 025°27'3 7.4
2017-Dec-13 18:30N 36°02' E 025°26'3 6.9
2017-Dec-13 18:00N 35°59' E 025°26'4 6.9
2017-Dec-13 17:30N 35°55' E 025°25'3 6.8
2017-Dec-13 17:01N 35°52' E 025°24'3 6.7
2017-Dec-13 16:30N 35°49' E 025°24'3 6.5
2017-Dec-13 16:00N 35°45' E 025°24'3 6.7
2017-Dec-13 15:31N 35°42' E 025°25'3 6.4
2017-Dec-13 15:00N 35°39' E 025°24'6 6.6
2017-Dec-13 14:09N 35°33' E 025°23'1 6.4
2017-Dec-13 13:59N 35°32' E 025°23'4 6.5
2017-Dec-13 13:19N 35°28' E 025°21'3 7.6
2017-Dec-13 12:58N 35°26' E 025°20'5 8.1
2017-Dec-13 12:23N 35°23' E 025°15'4 8.6
2017-Dec-13 11:56N 35°21' E 025°11'2 0.3
2017-Dec-13 05:59N 35°21' E 025°09'0 0.0
2017-Dec-13 05:29N 35°21' E 025°09'0 0.0
2017-Dec-13 04:26N 35°21' E 025°09'0 0.0
2017-Dec-13 03:44N 35°21' E 025°09'0 0.0
2017-Dec-13 03:26N 35°21' E 025°09'0 0.0
2017-Dec-13 02:56N 35°21' E 025°09'0 0.0
2017-Dec-13 02:29N 35°21' E 025°09'0 0.0
2017-Dec-13 01:59N 35°21' E 025°09'0 0.0
2017-Dec-13 01:29N 35°21' E 025°09'0 0.0
2017-Dec-13 00:59N 35°21' E 025°09'0 0.0
2017-Dec-13 00:26N 35°21' E 025°09'0 0.0
2017-Dec-12 23:59N 35°21' E 025°09'0 0.0
2017-Dec-12 23:26N 35°21' E 025°09'0 0.0
2017-Dec-12 22:47N 35°21' E 025°09'0 0.0
2017-Dec-12 22:26N 35°21' E 025°09'0 0.0
2017-Dec-12 21:59N 35°21' E 025°09'0 0.0
2017-Dec-12 21:23N 35°21' E 025°09'0 0.0
2017-Dec-12 20:59N 35°21' E 025°09'0 0.0
2017-Dec-12 20:29N 35°21' E 025°09'0 0.0
2017-Dec-12 19:56N 35°21' E 025°09'0 0.0
2017-Dec-12 19:29N 35°21' E 025°09'0 0.0
2017-Dec-12 18:56N 35°21' E 025°09'0 0.0
2017-Dec-12 18:29N 35°21' E 025°09'0 0.0
2017-Dec-12 17:56N 35°21' E 025°09'0 0.0
2017-Dec-12 15:53N 35°21' E 025°09'0 0.0
2017-Dec-12 15:17N 35°21' E 025°09'0 0.0
2017-Dec-12 14:17N 35°21' E 025°09'0 0.0
2017-Dec-12 10:41N 35°21' E 025°09'0 0.0
2017-Dec-12 10:11N 35°21' E 025°09'0 0.0
2017-Dec-12 09:59N 35°21' E 025°09'0 0.0
2017-Dec-12 06:38N 35°21' E 025°09'0 0.0
2017-Dec-12 06:17N 35°21' E 025°09'0 0.0
2017-Dec-12 05:56N 35°21' E 025°09'0 0.0
2017-Dec-12 05:26N 35°21' E 025°09'0 0.0
2017-Dec-12 04:38N 35°21' E 025°09'0 0.0
2017-Dec-12 04:29N 35°21' E 025°09'0 0.0
2017-Dec-12 03:56N 35°21' E 025°09'0 0.0
2017-Dec-12 03:23N 35°21' E 025°09'0 0.0
2017-Dec-12 02:59N 35°21' E 025°09'0 0.0
2017-Dec-12 02:29N 35°21' E 025°09'0 0.0
2017-Dec-12 01:56N 35°21' E 025°09'0 0.0
2017-Dec-12 01:26N 35°21' E 025°09'0 0.0
2017-Dec-12 00:53N 35°21' E 025°09'0 0.0
2017-Dec-11 23:47N 35°21' E 025°09'0 0.0
2017-Dec-11 23:29N 35°21' E 025°09'0 0.0
2017-Dec-11 20:48N 35°21' E 025°09'1 0.0
2017-Dec-10 09:20N 35°21' E 025°08'0 0.6
2017-Dec-10 08:56N 35°22' E 025°08'1 3.0
2017-Dec-10 08:29N 35°22' E 025°10'2 4.0
2017-Dec-10 08:00N 35°22' E 025°12'3 6.4
2017-Dec-10 07:30N 35°22' E 025°16'4 6.4
2017-Dec-10 06:53N 35°23' E 025°21'3 6.3
2017-Dec-10 06:28N 35°24' E 025°24'3 6.4
2017-Dec-10 05:56N 35°25' E 025°28'3 6.5
2017-Dec-10 05:29N 35°25' E 025°31'6 6.6
2017-Dec-10 04:33N 35°26' E 025°39'1 6.6
2017-Dec-10 04:24N 35°26' E 025°40'  

Dump ship's entire track history